createdAt,value
2022-12-12T00:02:18.560Z,31.20
2022-12-12T00:05:20.564Z,31.00
2022-12-12T00:11:25.455Z,31.30
2022-12-12T00:14:27.245Z,30.70
2022-12-12T00:17:28.988Z,33.20
2022-12-12T00:20:30.961Z,32.20
2022-12-12T00:23:32.745Z,32.60
2022-12-12T00:26:35.284Z,31.40
2022-12-12T00:29:37.012Z,29.60
2022-12-12T00:32:38.709Z,32.60
2022-12-12T00:35:40.311Z,33.50
2022-12-12T00:38:41.958Z,31.40
2022-12-12T00:41:44.003Z,32.10
2022-12-12T00:44:45.701Z,32.70
2022-12-12T00:47:47.411Z,31.30
2022-12-12T00:50:49.205Z,31.00
2022-12-12T00:56:52.607Z,31.10
2022-12-12T00:59:58.263Z,30.90
2022-12-12T01:03:00.038Z,32.70
2022-12-12T01:06:02.095Z,32.70
2022-12-12T01:12:06.052Z,31.70
2022-12-12T01:15:09.325Z,31.20
2022-12-12T01:18:11.188Z,30.70
2022-12-12T01:21:15.495Z,29.40
2022-12-12T01:24:17.161Z,31.00
2022-12-12T01:27:18.860Z,28.50
2022-12-12T01:30:22.351Z,31.40
2022-12-12T01:33:24.206Z,28.90
2022-12-12T01:36:25.814Z,28.80
2022-12-12T01:39:27.499Z,30.20
2022-12-12T01:42:29.732Z,27.80
2022-12-12T01:45:59.725Z,28.10
2022-12-12T01:49:06.467Z,29.80
2022-12-12T01:52:16.611Z,29.40
2022-12-12T01:55:22.756Z,30.70
2022-12-12T01:58:25.133Z,29.60
2022-12-12T02:01:27.101Z,29.60
2022-12-12T02:04:28.940Z,31.50
2022-12-12T02:07:30.757Z,30.30
2022-12-12T02:13:34.961Z,29.40
2022-12-12T02:17:26.637Z,29.90
2022-12-12T02:20:47.198Z,29.20
2022-12-12T02:24:04.027Z,27.40
2022-12-12T02:27:50.332Z,27.80
2022-12-12T02:31:37.082Z,29.80
2022-12-12T02:34:50.515Z,29.30
2022-12-12T02:37:59.567Z,28.70
2022-12-12T02:41:07.550Z,29.30
2022-12-12T02:44:26.664Z,26.00
2022-12-12T02:47:31.028Z,27.00
2022-12-12T02:50:33.199Z,27.50
2022-12-12T02:53:35.085Z,27.70
2022-12-12T02:56:50.731Z,28.00
2022-12-12T03:00:07.525Z,25.20
2022-12-12T03:03:52.678Z,27.40
2022-12-12T03:07:25.750Z,27.00
2022-12-12T03:10:46.579Z,25.50
2022-12-12T03:13:57.599Z,26.60
2022-12-12T03:17:09.965Z,23.90
2022-12-12T03:20:23.184Z,25.10
2022-12-12T03:23:28.582Z,24.50
2022-12-12T03:26:34.286Z,24.30
2022-12-12T03:30:01.885Z,26.00
2022-12-12T03:33:10.847Z,24.30
2022-12-12T03:36:19.312Z,26.10
2022-12-12T03:39:29.035Z,26.80
2022-12-12T03:42:39.254Z,23.00
2022-12-12T03:46:07.595Z,24.30
2022-12-12T03:49:14.609Z,25.70
2022-12-12T03:52:27.058Z,26.30
2022-12-12T03:55:45.209Z,27.00
2022-12-12T03:58:50.320Z,24.00
2022-12-12T04:02:07.915Z,24.80
2022-12-12T04:05:20.977Z,23.50
2022-12-12T04:08:22.786Z,24.40
2022-12-12T04:11:43.340Z,24.90
2022-12-12T04:14:59.689Z,25.80
2022-12-12T04:18:16.287Z,24.70
2022-12-12T04:22:02.732Z,24.50
2022-12-12T04:25:11.384Z,25.30
2022-12-12T04:28:13.702Z,27.90
2022-12-12T04:31:16.638Z,24.10
2022-12-12T04:34:28.671Z,23.40
2022-12-12T04:37:34.083Z,23.90
2022-12-12T04:40:41.469Z,22.10
2022-12-12T04:43:44.539Z,23.30
2022-12-12T04:46:48.633Z,23.40
2022-12-12T04:49:52.823Z,23.30
2022-12-12T04:52:56.181Z,23.10
2022-12-12T04:56:00.119Z,25.00
2022-12-12T04:59:03.371Z,22.20
2022-12-12T05:02:16.045Z,21.00
2022-12-12T05:05:22.064Z,20.00
2022-12-12T05:08:28.270Z,20.50
2022-12-12T05:11:30.287Z,20.10
2022-12-12T05:14:32.078Z,22.00
2022-12-12T05:20:37.480Z,20.70
2022-12-12T05:26:41.548Z,21.80
2022-12-12T05:29:43.338Z,22.30
2022-12-12T05:32:45.057Z,24.70
2022-12-12T05:35:46.745Z,32.10
2022-12-12T05:38:48.578Z,27.70
2022-12-12T05:44:51.942Z,19.80
2022-12-12T05:50:55.635Z,21.50
2022-12-12T05:53:57.265Z,21.30
2022-12-12T05:56:59.079Z,23.00
2022-12-12T06:03:02.815Z,21.60
2022-12-12T06:06:04.707Z,23.80
2022-12-12T06:12:08.057Z,22.90
2022-12-12T06:15:10.416Z,23.30
2022-12-12T06:18:12.382Z,24.90
2022-12-12T06:21:14.044Z,28.20
2022-12-12T06:24:15.845Z,35.50
2022-12-12T06:30:19.499Z,25.00
2022-12-12T06:36:24.339Z,26.20
2022-12-12T06:39:26.337Z,27.50
2022-12-12T06:42:28.189Z,27.30
2022-12-12T06:45:29.911Z,27.00
2022-12-12T06:48:32.793Z,27.30
2022-12-12T06:51:37.409Z,28.00
2022-12-12T06:54:39.010Z,28.50
2022-12-12T06:57:40.636Z,27.40
2022-12-12T07:00:42.422Z,28.00
2022-12-12T07:03:44.369Z,25.30
2022-12-12T07:09:47.849Z,25.40
2022-12-12T07:15:57.951Z,24.40
2022-12-12T07:18:59.856Z,27.60
2022-12-12T07:25:11.640Z,26.20
2022-12-12T07:28:14.589Z,28.00
2022-12-12T07:31:19.287Z,27.60
2022-12-12T07:34:20.984Z,27.60
2022-12-12T07:40:24.513Z,26.00
2022-12-12T07:43:26.847Z,27.30
2022-12-12T07:46:29.397Z,28.10
2022-12-12T07:52:33.002Z,28.80
2022-12-12T07:58:37.473Z,29.10
2022-12-12T08:01:39.796Z,27.50
2022-12-12T08:04:42.064Z,28.70
2022-12-12T08:07:44.065Z,29.50
2022-12-12T08:10:45.790Z,30.60
2022-12-12T08:13:48.136Z,30.70
2022-12-12T08:16:49.864Z,28.10
2022-12-12T08:19:51.735Z,30.00
2022-12-12T08:22:53.741Z,29.30
2022-12-12T08:25:55.436Z,29.50
2022-12-12T08:28:58.011Z,29.40
2022-12-12T08:31:59.840Z,30.50
2022-12-12T08:38:03.993Z,29.70
2022-12-12T08:41:05.701Z,29.70
2022-12-12T08:47:10.785Z,29.80
2022-12-12T08:50:12.794Z,29.40
2022-12-12T08:53:14.505Z,29.20
2022-12-12T08:56:17.789Z,27.00
2022-12-12T08:59:19.978Z,29.20
2022-12-12T09:02:21.833Z,28.60
2022-12-12T09:05:23.716Z,29.20
2022-12-12T09:11:27.375Z,27.40
2022-12-12T09:14:29.109Z,30.10
2022-12-12T09:20:32.815Z,29.80
2022-12-12T09:23:35.065Z,28.70
2022-12-12T09:26:37.914Z,27.70
2022-12-12T09:29:40.189Z,28.90
2022-12-12T09:32:42.249Z,28.00
2022-12-12T09:35:44.399Z,27.60
2022-12-12T09:38:46.134Z,28.90
2022-12-12T09:44:54.730Z,27.30
2022-12-12T09:48:00.532Z,28.70
2022-12-12T09:51:02.707Z,28.60
2022-12-12T09:57:24.941Z,29.00
2022-12-12T10:00:27.401Z,28.10
2022-12-12T10:03:50.968Z,29.10
2022-12-12T10:07:04.813Z,27.10
2022-12-12T10:10:25.951Z,28.60
2022-12-12T10:13:30.137Z,29.80
2022-12-12T10:16:32.792Z,28.90
2022-12-12T10:19:42.820Z,27.10
2022-12-12T10:22:56.857Z,27.30
2022-12-12T10:26:24.380Z,27.40
2022-12-12T10:29:27.097Z,27.60
2022-12-12T10:32:58.324Z,27.10
2022-12-12T10:36:12.775Z,27.20
2022-12-12T10:39:24.485Z,27.20
2022-12-12T10:42:43.389Z,26.30
2022-12-12T10:45:59.329Z,27.70
2022-12-12T10:49:01.145Z,27.40
2022-12-12T10:52:05.300Z,24.90
2022-12-12T10:55:36.313Z,27.60
2022-12-12T10:58:46.319Z,25.70
2022-12-12T11:02:10.169Z,25.20
2022-12-12T11:05:25.033Z,25.50
2022-12-12T11:08:31.899Z,25.70
2022-12-12T11:11:34.191Z,27.00
2022-12-12T11:14:45.921Z,26.10
2022-12-12T11:17:50.119Z,24.30
2022-12-12T11:21:02.123Z,25.80
2022-12-12T11:24:08.381Z,24.90
2022-12-12T11:27:19.786Z,26.70
2022-12-12T11:30:32.876Z,24.70
2022-12-12T11:33:39.541Z,26.50
2022-12-12T11:36:41.920Z,25.70
2022-12-12T11:39:46.145Z,25.90
2022-12-12T11:42:47.873Z,26.70
2022-12-12T11:45:59.875Z,26.60
2022-12-12T11:52:30.672Z,30.80
2022-12-12T11:55:58.124Z,33.60
2022-12-12T11:59:23.442Z,34.00
2022-12-12T12:02:47.081Z,31.60
2022-12-12T12:06:17.895Z,30.60
2022-12-12T12:09:47.646Z,29.30
2022-12-12T12:13:02.601Z,26.90
2022-12-12T12:16:22.464Z,28.30
2022-12-12T12:19:39.324Z,27.60
2022-12-12T12:23:04.545Z,29.90
2022-12-12T12:26:11.772Z,25.80
2022-12-12T12:29:25.843Z,29.60
2022-12-12T12:32:44.082Z,30.20
2022-12-12T12:36:01.531Z,30.60
2022-12-12T12:39:30.001Z,29.30
2022-12-12T12:42:46.179Z,29.10
2022-12-12T12:46:00.009Z,28.40
2022-12-12T12:49:27.849Z,28.10
2022-12-12T12:53:12.225Z,29.50
2022-12-12T12:56:26.523Z,29.10
2022-12-12T12:59:34.859Z,30.00
2022-12-12T13:03:11.182Z,30.00
2022-12-12T13:06:19.003Z,29.20
2022-12-12T13:09:44.848Z,29.20
2022-12-12T13:12:59.019Z,26.70
2022-12-12T13:16:20.361Z,29.10
2022-12-12T13:19:35.672Z,29.70
2022-12-12T13:22:52.629Z,28.20
2022-12-12T13:25:58.456Z,28.70
2022-12-12T13:29:04.610Z,26.60
2022-12-12T13:32:37.758Z,28.20
2022-12-12T13:35:51.169Z,28.80
2022-12-12T13:38:57.986Z,26.80
2022-12-12T13:42:05.350Z,26.30
2022-12-12T13:45:32.220Z,27.70
2022-12-12T13:48:46.160Z,28.00
2022-12-12T13:51:48.605Z,27.00
2022-12-12T13:58:06.779Z,27.90
2022-12-12T14:01:27.238Z,25.90
2022-12-12T14:04:32.222Z,28.70
2022-12-12T14:07:34.260Z,27.60
2022-12-12T14:10:48.110Z,28.70
2022-12-12T14:13:51.089Z,27.00
2022-12-12T14:16:54.767Z,28.20
2022-12-12T14:19:58.656Z,29.00
2022-12-12T14:23:09.153Z,29.70
2022-12-12T14:26:29.003Z,30.90
2022-12-12T14:29:33.173Z,31.00
2022-12-12T14:32:43.882Z,30.70
2022-12-12T14:35:53.802Z,30.50
2022-12-12T14:39:21.874Z,29.90
2022-12-12T14:43:20.438Z,31.90
2022-12-12T14:45:56.969Z,31.90
2022-12-12T14:49:03.752Z,29.90
2022-12-12T14:52:05.604Z,33.50
2022-12-12T14:58:09.287Z,33.30
2022-12-12T15:04:15.546Z,33.00
2022-12-12T15:07:29.116Z,32.40
2022-12-12T15:10:30.975Z,34.60
2022-12-12T15:13:32.692Z,34.80
2022-12-12T15:16:40.692Z,33.60
2022-12-12T15:19:49.223Z,33.80
2022-12-12T15:22:57.885Z,33.70
2022-12-12T15:25:59.519Z,32.10
2022-12-12T15:29:01.150Z,34.90
2022-12-12T15:32:06.663Z,34.40
2022-12-12T15:35:08.439Z,34.90
2022-12-12T15:41:21.388Z,33.70
2022-12-12T15:44:23.193Z,32.90
2022-12-12T15:47:25.103Z,33.90
2022-12-12T15:53:49.573Z,36.40
2022-12-12T15:56:51.226Z,35.40
2022-12-12T16:00:32.341Z,35.20
2022-12-12T16:03:34.540Z,33.70
2022-12-12T16:06:45.190Z,33.90
2022-12-12T16:10:01.651Z,34.30
2022-12-12T16:13:24.952Z,35.00
2022-12-12T16:16:43.961Z,38.20
2022-12-12T16:20:01.430Z,40.00
2022-12-12T16:23:22.322Z,38.90
2022-12-12T16:26:24.031Z,36.80
2022-12-12T16:29:26.679Z,39.40
2022-12-12T16:32:28.483Z,36.90
2022-12-12T16:35:30.262Z,32.70
2022-12-12T16:41:33.907Z,31.60
2022-12-12T16:47:37.222Z,33.40
2022-12-12T16:50:38.945Z,33.80
2022-12-12T16:53:40.672Z,32.40
2022-12-12T16:56:43.195Z,33.50
2022-12-12T16:59:45.169Z,34.60
2022-12-12T17:02:46.921Z,31.90
2022-12-12T17:08:50.302Z,45.50
2022-12-12T17:11:52.221Z,40.90
2022-12-12T17:17:56.093Z,34.00
2022-12-12T17:20:58.013Z,36.30
2022-12-12T17:23:59.674Z,35.70
2022-12-12T17:30:04.803Z,37.00
2022-12-12T17:33:18.842Z,41.90
2022-12-12T17:36:21.332Z,41.00
2022-12-12T17:39:23.115Z,37.50
2022-12-12T17:42:24.938Z,37.70
2022-12-12T17:48:33.398Z,37.00
2022-12-12T17:51:35.198Z,37.20
2022-12-12T17:57:38.585Z,37.10
2022-12-12T18:00:40.333Z,34.00
2022-12-12T18:03:42.901Z,35.00
2022-12-12T18:06:44.630Z,36.80
2022-12-12T18:12:51.594Z,40.20
2022-12-12T18:15:57.928Z,54.90
2022-12-12T18:19:00.548Z,58.90
2022-12-12T18:22:02.643Z,46.40
2022-12-12T18:25:05.112Z,42.40
2022-12-12T18:28:06.859Z,43.90
2022-12-12T18:31:08.690Z,43.80
2022-12-12T18:37:12.306Z,42.20
2022-12-12T18:43:16.374Z,42.00
2022-12-12T18:46:20.588Z,39.80
2022-12-12T18:49:22.451Z,42.10
2022-12-12T18:55:30.107Z,44.50
2022-12-12T18:58:32.081Z,41.70
2022-12-12T19:01:36.175Z,43.20
2022-12-12T19:04:39.047Z,44.20
2022-12-12T19:07:41.592Z,41.40
2022-12-12T19:10:43.282Z,40.20
2022-12-12T19:13:46.529Z,41.30
2022-12-12T19:16:48.284Z,42.60
2022-12-12T19:19:50.706Z,43.80
2022-12-12T19:22:52.430Z,45.60
2022-12-12T19:28:59.548Z,43.30
2022-12-12T19:32:01.256Z,43.10
2022-12-12T19:35:02.975Z,42.10
2022-12-12T19:38:04.689Z,41.50
2022-12-12T19:41:07.704Z,42.70
2022-12-12T19:44:12.832Z,42.30
2022-12-12T19:47:14.658Z,43.60
2022-12-12T19:53:18.557Z,52.20
2022-12-12T19:56:22.295Z,58.80
2022-12-12T19:59:23.899Z,48.30
2022-12-12T20:02:25.598Z,45.00
2022-12-12T20:05:27.601Z,44.10
2022-12-12T20:08:31.104Z,43.70
2022-12-12T20:11:32.816Z,43.70
2022-12-12T20:14:36.579Z,43.10
2022-12-12T20:17:38.420Z,45.20
2022-12-12T20:23:47.058Z,44.00
2022-12-12T20:26:49.168Z,44.20
2022-12-12T20:32:52.479Z,41.50
2022-12-12T20:35:54.104Z,44.80
2022-12-12T20:38:57.373Z,45.30
2022-12-12T20:41:59.158Z,42.30
2022-12-12T20:48:07.549Z,42.30
2022-12-12T20:51:45.544Z,42.40
2022-12-12T20:54:33.647Z,42.10
2022-12-12T21:00:38.417Z,41.50
2022-12-12T21:03:41.197Z,41.80
2022-12-12T21:06:48.163Z,40.70
2022-12-12T21:09:50.230Z,39.60
2022-12-12T21:12:51.893Z,38.90
2022-12-12T21:15:53.964Z,40.00
2022-12-12T21:21:58.579Z,35.50
2022-12-12T21:25:00.308Z,31.90
2022-12-12T21:28:02.006Z,30.30
2022-12-12T21:31:06.496Z,29.20
2022-12-12T21:34:08.507Z,28.90
2022-12-12T21:37:10.196Z,28.90
2022-12-12T21:40:12.361Z,27.10
2022-12-12T21:43:14.012Z,31.70
2022-12-12T21:46:21.784Z,32.40
2022-12-12T21:49:26.894Z,30.40
2022-12-12T21:52:28.879Z,32.00
2022-12-12T21:55:30.761Z,30.30
2022-12-12T22:01:34.425Z,27.90
2022-12-12T22:07:37.574Z,28.60
2022-12-12T22:10:39.193Z,28.80
2022-12-12T22:13:42.730Z,26.50
2022-12-12T22:16:45.088Z,25.20
2022-12-12T22:19:47.215Z,24.10
2022-12-12T22:22:48.840Z,23.60
2022-12-12T22:25:50.563Z,24.50
2022-12-12T22:28:54.429Z,24.30
2022-12-12T22:31:56.154Z,24.80
2022-12-12T22:38:00.361Z,23.40
2022-12-12T22:41:02.037Z,24.90
2022-12-12T22:44:06.044Z,23.10
2022-12-12T22:47:07.698Z,21.80
2022-12-12T22:50:10.077Z,22.10
2022-12-12T22:53:13.242Z,24.00
2022-12-12T22:56:15.739Z,23.50
2022-12-12T22:59:17.424Z,24.90
2022-12-12T23:05:27.300Z,23.00
2022-12-12T23:08:29.067Z,23.10
2022-12-12T23:14:32.881Z,22.60
2022-12-12T23:20:36.282Z,20.80
2022-12-12T23:23:38.881Z,21.10
2022-12-12T23:26:41.511Z,19.30
2022-12-12T23:29:43.219Z,20.40
2022-12-12T23:35:49.755Z,18.30
2022-12-12T23:38:59.822Z,19.10
2022-12-12T23:42:01.581Z,17.60
2022-12-12T23:48:05.890Z,16.00
2022-12-12T23:51:07.547Z,17.70
2022-12-12T23:57:12.289Z,17.20
